createdAt,value
2022-10-01T00:02:41.328Z,92.31
2022-10-01T00:07:52.376Z,92.33
2022-10-01T00:12:57.059Z,92.46
2022-10-01T00:18:06.450Z,92.67
2022-10-01T00:23:24.883Z,92.76
2022-10-01T00:28:44.866Z,92.87
2022-10-01T00:33:49.927Z,92.84
2022-10-01T00:38:53.787Z,92.88
2022-10-01T00:44:00.550Z,92.91
2022-10-01T00:49:09.846Z,93.06
2022-10-01T00:54:23.386Z,93.17
2022-10-01T00:59:29.004Z,93.22
2022-10-01T01:04:33.352Z,93.25
2022-10-01T01:09:39.340Z,93.30
2022-10-01T01:15:10.909Z,93.36
2022-10-01T01:20:29.253Z,93.41
2022-10-01T01:25:50.374Z,93.33
2022-10-01T01:31:02.018Z,93.25
2022-10-01T01:36:10.285Z,93.27
2022-10-01T01:41:15.884Z,93.38
2022-10-01T01:46:20.424Z,93.34
2022-10-01T01:52:13.905Z,93.26
2022-10-01T01:57:20.782Z,93.49
2022-10-01T02:02:27.967Z,93.48
2022-10-01T02:07:35.603Z,93.46
2022-10-01T02:13:04.853Z,93.54
2022-10-01T02:18:16.870Z,93.52
2022-10-01T02:23:25.651Z,93.50
2022-10-01T02:28:31.692Z,93.56
2022-10-01T02:33:37.721Z,93.73
2022-10-01T02:38:42.855Z,93.92
2022-10-01T02:43:55.150Z,94.15
2022-10-01T02:49:00.384Z,94.23
2022-10-01T02:54:14.724Z,94.23
2022-10-01T02:59:18.160Z,93.94
2022-10-01T03:04:22.329Z,93.86
2022-10-01T03:09:27.205Z,93.55
2022-10-01T03:14:30.469Z,93.69
2022-10-01T03:19:34.414Z,93.63
2022-10-01T03:24:38.444Z,93.58
2022-10-01T03:29:41.722Z,93.62
2022-10-01T03:34:45.262Z,93.67
2022-10-01T03:39:48.706Z,93.55
2022-10-01T03:44:52.443Z,93.69
2022-10-01T03:49:55.791Z,93.80
2022-10-01T03:55:01.488Z,93.53
2022-10-01T04:00:05.228Z,93.71
2022-10-01T04:05:15.884Z,93.84
2022-10-01T04:10:19.445Z,93.74
2022-10-01T04:15:23.547Z,93.68
2022-10-01T04:20:26.914Z,93.70
2022-10-01T04:25:30.809Z,93.76
2022-10-01T04:30:38.483Z,93.82
2022-10-01T04:35:58.250Z,93.75
2022-10-01T04:41:01.491Z,93.67
2022-10-01T04:46:05.176Z,93.77
2022-10-01T04:51:08.713Z,93.58
2022-10-01T04:56:12.001Z,93.24
2022-10-01T05:01:20.438Z,93.29
2022-10-01T05:06:23.763Z,93.31
2022-10-01T05:11:27.135Z,93.22
2022-10-01T05:16:30.605Z,93.17
2022-10-01T05:21:36.905Z,93.12
2022-10-01T05:26:40.440Z,92.98
2022-10-01T05:31:46.681Z,93.11
2022-10-01T05:36:59.949Z,93.04
2022-10-01T05:42:07.623Z,93.18
2022-10-01T05:47:11.361Z,92.89
2022-10-01T05:52:16.867Z,92.84
2022-10-01T05:57:24.426Z,92.68
2022-10-01T06:02:29.170Z,92.56
2022-10-01T06:07:35.174Z,92.33
2022-10-01T06:12:42.486Z,92.51
2022-10-01T06:17:52.958Z,92.47
2022-10-01T06:22:57.785Z,92.27
2022-10-01T06:28:03.102Z,92.13
2022-10-01T06:33:17.413Z,91.98
2022-10-01T06:38:22.674Z,91.71
2022-10-01T06:43:29.157Z,91.48
2022-10-01T06:48:32.701Z,91.19
2022-10-01T06:53:38.619Z,91.09
2022-10-01T06:58:42.832Z,90.98
2022-10-01T07:03:46.959Z,90.77
2022-10-01T07:08:50.643Z,90.44
2022-10-01T07:13:54.849Z,90.00
2022-10-01T07:18:58.408Z,89.48
2022-10-01T07:24:02.871Z,89.52
2022-10-01T07:29:07.193Z,89.21
2022-10-01T07:34:10.458Z,88.81
2022-10-01T07:39:13.926Z,88.63
2022-10-01T07:44:20.355Z,88.61
2022-10-01T07:49:27.075Z,88.65
2022-10-01T07:54:33.107Z,88.03
2022-10-01T07:59:36.994Z,87.13
2022-10-01T08:05:03.099Z,87.37
2022-10-01T08:10:12.208Z,86.87
2022-10-01T08:15:21.191Z,87.03
2022-10-01T08:20:28.964Z,86.19
2022-10-01T08:25:35.760Z,86.07
2022-10-01T08:30:40.397Z,85.28
2022-10-01T08:35:43.981Z,85.60
2022-10-01T08:40:51.685Z,85.46
2022-10-01T08:46:00.181Z,84.62
2022-10-01T08:51:31.519Z,84.89
2022-10-01T08:56:37.218Z,84.49
2022-10-01T09:01:41.490Z,83.05
2022-10-01T09:06:48.057Z,83.91
2022-10-01T09:12:36.432Z,83.64
2022-10-01T09:18:26.054Z,83.54
2022-10-01T09:23:32.383Z,82.65
2022-10-01T09:28:39.169Z,80.58
2022-10-01T09:33:46.898Z,77.89
2022-10-01T09:39:27.429Z,77.99
2022-10-01T09:44:31.938Z,78.64
2022-10-01T09:49:44.233Z,72.83
2022-10-01T09:55:04.801Z,74.36
2022-10-01T10:00:11.287Z,75.00
2022-10-01T10:05:16.471Z,75.05
2022-10-01T10:10:35.859Z,72.28
2022-10-01T10:15:49.913Z,71.07
2022-10-01T10:20:54.409Z,72.92
2022-10-01T10:26:06.464Z,73.20
2022-10-01T10:31:31.841Z,70.51
2022-10-01T10:36:38.814Z,68.81
2022-10-01T10:41:45.170Z,68.12
2022-10-01T10:46:49.869Z,67.97
2022-10-01T10:51:55.186Z,67.51
2022-10-01T10:57:24.415Z,66.71
2022-10-01T11:02:30.866Z,70.08
2022-10-01T11:07:37.679Z,68.02
2022-10-01T11:13:11.353Z,66.58
2022-10-01T11:18:44.551Z,68.89
2022-10-01T11:24:10.792Z,66.98
2022-10-01T11:29:25.861Z,67.23
2022-10-01T11:34:43.453Z,68.18
2022-10-01T11:39:52.229Z,67.29
2022-10-01T11:45:03.551Z,68.18
2022-10-01T11:50:19.153Z,68.47
2022-10-01T11:56:24.104Z,67.66
2022-10-01T12:01:58.550Z,69.10
2022-10-01T12:07:37.209Z,67.84
2022-10-01T12:13:30.845Z,66.09
2022-10-01T12:19:07.887Z,64.15
2022-10-01T12:24:14.797Z,64.45
2022-10-01T12:29:50.687Z,65.35
2022-10-01T12:35:31.640Z,63.63
2022-10-01T12:40:57.229Z,62.18
2022-10-01T12:46:45.569Z,62.36
2022-10-01T12:52:06.699Z,61.86
2022-10-01T12:57:23.320Z,62.08
2022-10-01T13:02:55.963Z,62.06
2022-10-01T13:08:19.462Z,60.74
2022-10-01T13:13:27.094Z,61.69
2022-10-01T13:18:38.701Z,60.38
2022-10-01T13:24:03.742Z,61.56
2022-10-01T13:29:13.163Z,60.87
2022-10-01T13:34:37.191Z,59.48
2022-10-01T13:39:43.766Z,61.07
2022-10-01T13:44:53.392Z,59.89
2022-10-01T13:50:25.430Z,59.50
2022-10-01T13:55:31.252Z,60.01
2022-10-01T14:00:58.081Z,61.01
2022-10-01T14:06:03.897Z,59.88
2022-10-01T14:11:31.504Z,61.59
2022-10-01T14:16:44.543Z,61.41
2022-10-01T14:22:25.667Z,62.05
2022-10-01T14:27:57.303Z,62.33
2022-10-01T14:33:28.810Z,61.80
2022-10-01T14:38:35.076Z,62.16
2022-10-01T14:43:39.948Z,62.78
2022-10-01T14:48:59.172Z,62.93
2022-10-01T14:54:03.901Z,63.51
2022-10-01T14:59:09.027Z,64.12
2022-10-01T15:04:20.741Z,64.99
2022-10-01T15:09:25.131Z,67.00
2022-10-01T15:14:29.356Z,70.06
2022-10-01T15:19:38.148Z,71.66
2022-10-01T15:24:46.944Z,74.12
2022-10-01T15:29:57.400Z,75.29
2022-10-01T15:35:03.730Z,76.54
2022-10-01T15:40:25.477Z,77.85
2022-10-01T15:46:15.266Z,79.37
2022-10-01T15:51:28.615Z,81.54
2022-10-01T15:56:37.064Z,81.11
2022-10-01T16:01:47.769Z,80.78
2022-10-01T16:07:01.721Z,82.00
2022-10-01T16:12:11.950Z,80.45
2022-10-01T16:17:16.993Z,80.64
2022-10-01T16:22:30.854Z,81.39
2022-10-01T16:27:53.582Z,82.30
2022-10-01T16:33:06.343Z,82.59
2022-10-01T16:38:13.011Z,81.62
2022-10-01T16:43:22.780Z,81.65
2022-10-01T16:48:26.376Z,81.40
2022-10-01T16:53:44.234Z,81.30
2022-10-01T16:59:00.548Z,81.61
2022-10-01T17:04:03.968Z,82.78
2022-10-01T17:09:08.066Z,81.90
2022-10-01T17:14:17.630Z,82.52
2022-10-01T17:19:22.264Z,81.91
2022-10-01T17:24:25.735Z,82.54
2022-10-01T17:29:31.224Z,82.94
2022-10-01T17:34:41.640Z,82.80
2022-10-01T17:39:45.452Z,82.60
2022-10-01T17:44:51.774Z,82.75
2022-10-01T17:49:58.253Z,83.37
2022-10-01T17:55:01.872Z,83.17
2022-10-01T18:00:07.178Z,82.63
2022-10-01T18:05:18.052Z,83.63
2022-10-01T18:10:21.898Z,83.75
2022-10-01T18:15:30.095Z,83.34
2022-10-01T18:20:41.632Z,82.33
2022-10-01T18:26:01.743Z,82.75
2022-10-01T18:31:35.122Z,82.90
2022-10-01T18:43:08.023Z,82.96
2022-10-01T18:48:38.375Z,82.85
2022-10-01T18:54:21.614Z,82.73
2022-10-01T19:00:09.731Z,83.37
2022-10-01T19:05:51.932Z,83.52
2022-10-01T19:12:00.930Z,84.41
2022-10-01T19:17:41.745Z,84.72
2022-10-01T19:23:11.685Z,85.08
2022-10-01T19:28:55.484Z,85.07
2022-10-01T19:34:18.996Z,85.03
2022-10-01T19:39:41.580Z,85.90
2022-10-01T19:44:56.993Z,86.39
2022-10-01T19:50:07.890Z,86.81
2022-10-01T19:55:18.946Z,87.32
2022-10-01T20:00:24.188Z,87.53
2022-10-01T20:05:55.322Z,87.67
2022-10-01T20:11:10.795Z,87.61
2022-10-01T20:16:38.276Z,87.96
2022-10-01T20:22:14.307Z,88.07
2022-10-01T20:28:10.518Z,87.20
2022-10-01T20:33:43.472Z,87.76
2022-10-01T20:39:25.527Z,88.13
2022-10-01T20:44:35.929Z,88.03
2022-10-01T20:50:12.720Z,88.08
2022-10-01T20:55:29.555Z,88.25
2022-10-01T21:00:49.953Z,88.42
2022-10-01T21:06:24.890Z,88.41
2022-10-01T21:11:45.429Z,88.42
2022-10-01T21:17:02.307Z,88.44
2022-10-01T21:22:52.971Z,88.13
2022-10-01T21:28:02.009Z,88.25
2022-10-01T21:33:44.576Z,88.33
2022-10-01T21:38:57.504Z,88.31
2022-10-01T21:44:10.833Z,88.69
2022-10-01T21:49:46.087Z,88.90
2022-10-01T21:55:37.696Z,89.07
2022-10-01T22:00:56.450Z,89.23
2022-10-01T22:06:18.762Z,89.31
2022-10-01T22:11:28.975Z,89.41
2022-10-01T22:16:44.280Z,89.49
2022-10-01T22:21:59.378Z,89.69
2022-10-01T22:27:16.604Z,89.65
2022-10-01T22:32:23.689Z,89.30
2022-10-01T22:37:54.688Z,89.12
2022-10-01T22:43:08.181Z,88.90
2022-10-01T22:48:18.350Z,89.00
2022-10-01T22:53:52.014Z,88.63
2022-10-01T22:59:16.811Z,88.22
2022-10-01T23:04:27.242Z,87.50
2022-10-01T23:09:53.661Z,87.39
2022-10-01T23:15:08.061Z,87.55
2022-10-01T23:20:24.335Z,87.13
2022-10-01T23:25:48.595Z,87.02
2022-10-01T23:31:26.018Z,86.83
2022-10-01T23:37:02.659Z,86.54
2022-10-01T23:42:28.807Z,86.16
2022-10-01T23:47:55.585Z,85.70
2022-10-01T23:53:10.680Z,85.34
2022-10-01T23:58:15.428Z,84.60
